createdAt,value
2023-09-21T11:52:47.332Z,372.30
2023-09-21T11:53:48.328Z,366.90
2023-09-21T11:54:48.430Z,650.20
2023-09-21T11:55:48.275Z,520.90
2023-09-21T11:56:54.402Z,444.50
2023-09-21T11:57:48.253Z,637.20
2023-09-21T11:58:48.255Z,655.00
2023-09-21T11:59:48.241Z,635.10
2023-09-21T12:00:51.797Z,598.00
2023-09-21T12:01:48.230Z,525.50
2023-09-21T12:02:48.675Z,636.40
2023-09-21T12:03:48.303Z,635.20
2023-09-21T12:04:48.241Z,755.90
2023-09-21T12:05:48.179Z,825.70
2023-09-21T12:06:48.193Z,858.40
2023-09-21T12:07:48.143Z,871.70
2023-09-21T12:08:48.143Z,853.60
2023-09-21T12:09:48.113Z,888.80
2023-09-21T12:10:48.141Z,720.00
2023-09-21T12:11:48.112Z,909.90
2023-09-21T12:12:48.156Z,870.70
2023-09-21T12:13:48.085Z,854.40
2023-09-21T12:14:48.064Z,866.50
2023-09-21T12:15:48.041Z,854.70
2023-09-21T12:16:48.073Z,886.30
2023-09-21T12:17:48.112Z,831.30
2023-09-21T12:18:48.241Z,833.80
2023-09-21T12:19:48.050Z,866.70
2023-09-21T12:20:48.005Z,812.30
2023-09-21T12:21:48.522Z,865.50
2023-09-21T12:22:47.997Z,854.70
2023-09-21T12:23:47.960Z,877.60
2023-09-21T12:24:48.026Z,881.50
2023-09-21T12:25:47.936Z,882.00
2023-09-21T12:26:47.931Z,855.60
2023-09-21T12:27:48.432Z,852.90
2023-09-21T12:28:47.914Z,870.00
2023-09-21T12:29:48.482Z,863.00
2023-09-21T12:30:47.965Z,847.70
2023-09-21T12:31:59.323Z,862.00
2023-09-21T12:32:47.947Z,861.10
2023-09-21T12:33:47.870Z,858.50
2023-09-21T12:34:47.837Z,872.60
2023-09-21T12:35:47.837Z,861.20
2023-09-21T12:36:47.879Z,843.40
2023-09-21T12:37:47.834Z,858.30
2023-09-21T12:38:47.792Z,839.50
2023-09-21T12:39:47.787Z,832.80
2023-09-21T12:40:47.760Z,821.00
2023-09-21T12:41:47.776Z,808.40
2023-09-21T12:42:47.755Z,791.70
2023-09-21T12:43:47.737Z,794.30
2023-09-21T12:44:47.740Z,800.50
2023-09-21T12:45:47.728Z,814.10
2023-09-21T12:46:47.785Z,755.40
2023-09-21T12:47:47.746Z,811.50
2023-09-21T12:48:47.702Z,736.10
2023-09-21T12:49:47.671Z,793.30
2023-09-21T12:50:47.713Z,806.50
2023-09-21T12:51:47.641Z,759.90
2023-09-21T12:52:47.632Z,782.20
2023-09-21T12:53:47.652Z,750.70
2023-09-21T12:54:47.611Z,740.90
2023-09-21T12:55:47.635Z,753.40
2023-09-21T12:56:47.607Z,740.40
2023-09-21T12:57:47.583Z,720.80
2023-09-21T12:58:47.568Z,723.10
2023-09-21T12:59:47.592Z,707.80
2023-09-21T13:00:47.673Z,778.40
2023-09-21T13:01:47.704Z,740.10
2023-09-21T13:02:47.634Z,677.90
2023-09-21T13:03:47.933Z,810.90
2023-09-21T13:04:47.732Z,783.60
2023-09-21T13:05:47.489Z,801.20
2023-09-21T13:06:47.519Z,807.80
2023-09-21T13:07:47.496Z,755.70
2023-09-21T13:08:47.492Z,709.40
2023-09-21T13:09:52.211Z,745.90
2023-09-21T13:10:47.437Z,705.40
2023-09-21T13:11:47.473Z,804.90
2023-09-21T13:12:47.450Z,685.30
2023-09-21T13:13:47.417Z,789.90
2023-09-21T13:14:47.427Z,737.50
2023-09-21T13:15:47.421Z,637.60
2023-09-21T13:16:47.477Z,601.50
2023-09-21T13:17:47.390Z,584.40
2023-09-21T13:18:47.569Z,621.30
2023-09-21T13:19:47.380Z,622.20
2023-09-21T13:20:47.319Z,600.50
2023-09-21T13:21:47.300Z,673.30
2023-09-21T13:22:47.312Z,622.10
2023-09-21T13:23:47.323Z,780.10
2023-09-21T13:24:47.271Z,768.80
2023-09-21T13:25:47.278Z,629.50
2023-09-21T13:26:47.254Z,622.50
2023-09-21T13:27:47.481Z,615.70
2023-09-21T13:28:47.261Z,570.70
2023-09-21T13:29:48.052Z,632.50
2023-09-21T13:30:47.291Z,532.20
2023-09-21T13:31:47.238Z,581.90
2023-09-21T13:32:48.916Z,504.20
2023-09-21T13:33:47.222Z,527.50
2023-09-21T13:34:47.191Z,512.50
2023-09-21T13:35:47.523Z,601.50
2023-09-21T13:36:47.176Z,577.80
2023-09-21T13:37:47.160Z,480.90
2023-09-21T13:38:47.464Z,559.20
2023-09-21T13:39:47.114Z,501.70
2023-09-21T13:40:47.098Z,458.60
2023-09-21T13:41:47.086Z,432.70
2023-09-21T13:42:47.112Z,424.60
2023-09-21T13:43:47.057Z,416.60
2023-09-21T13:44:47.062Z,550.50
2023-09-21T13:45:47.071Z,528.00
2023-09-21T13:46:47.065Z,475.80
2023-09-21T13:47:47.084Z,454.20
2023-09-21T13:48:47.067Z,444.30
2023-09-21T13:49:47.021Z,461.60
2023-09-21T13:50:48.452Z,487.90
2023-09-21T13:51:46.989Z,466.80
2023-09-21T13:52:46.977Z,428.80
2023-09-21T13:53:47.004Z,394.90
2023-09-21T13:54:47.890Z,407.70
2023-09-21T13:55:46.919Z,462.30
2023-09-21T13:56:46.974Z,424.10
2023-09-21T13:57:47.033Z,454.40
2023-09-21T13:58:47.110Z,473.10
2023-09-21T13:59:46.887Z,468.40
2023-09-21T14:00:46.972Z,462.30
2023-09-21T14:01:46.902Z,499.30
2023-09-21T14:02:46.979Z,497.00
2023-09-21T14:03:47.698Z,478.00
2023-09-21T14:04:47.041Z,551.00
2023-09-21T14:05:47.086Z,600.90
2023-09-21T14:06:46.901Z,543.80
2023-09-21T14:07:59.365Z,550.70
2023-09-21T14:08:46.863Z,560.70
2023-09-21T14:09:46.770Z,592.10
2023-09-21T14:10:47.914Z,560.00
2023-09-21T14:11:46.789Z,580.20
2023-09-21T14:12:46.798Z,575.60
2023-09-21T14:13:46.752Z,571.10
2023-09-21T14:14:46.718Z,591.20
2023-09-21T14:18:07.029Z,555.70
2023-09-21T14:18:12.538Z,572.30
2023-09-21T14:19:12.359Z,565.00
2023-09-21T14:21:27.642Z,554.30
2023-09-21T14:21:33.116Z,541.00
2023-09-21T14:22:32.944Z,517.90
2023-09-21T14:23:32.942Z,510.80
2023-09-21T14:24:32.975Z,510.80
2023-09-21T14:25:32.949Z,476.90
2023-09-21T14:26:32.888Z,472.60
2023-09-21T14:27:32.966Z,478.30
2023-09-21T14:28:32.880Z,450.40
2023-09-21T14:29:32.914Z,480.70
2023-09-21T14:30:32.929Z,481.00
2023-09-21T14:31:32.891Z,487.80
2023-09-21T14:32:39.546Z,495.00
2023-09-21T14:33:33.144Z,517.20
2023-09-21T14:34:33.248Z,494.10
2023-09-21T14:35:39.489Z,482.20
2023-09-21T14:36:32.846Z,459.80
2023-09-21T14:37:33.591Z,489.60
2023-09-21T14:38:32.765Z,525.00
2023-09-21T14:39:41.113Z,567.10
2023-09-21T14:40:33.718Z,568.30
2023-09-21T14:41:32.775Z,622.50
2023-09-21T14:42:32.731Z,508.40
2023-09-21T14:44:50.516Z,524.60
2023-09-21T14:45:51.581Z,560.00
2023-09-21T14:46:52.213Z,553.40
2023-09-21T14:47:52.322Z,527.10
2023-09-21T14:48:51.538Z,537.10
2023-09-21T14:49:51.451Z,566.60
2023-09-21T14:50:51.442Z,600.30
2023-09-21T14:51:51.429Z,580.20
2023-09-21T14:52:51.480Z,617.50
2023-09-21T14:53:51.431Z,610.70
2023-09-21T14:54:51.609Z,630.80
2023-09-21T14:55:51.380Z,592.20
2023-09-21T14:56:51.380Z,627.70
2023-09-21T14:57:51.376Z,629.50
2023-09-21T14:58:51.366Z,639.90
2023-09-21T14:59:51.339Z,660.20
2023-09-21T15:00:51.337Z,684.90
2023-09-21T15:01:51.389Z,707.30
2023-09-21T15:02:51.455Z,691.90
2023-09-21T15:03:51.382Z,700.70
2023-09-21T15:04:51.340Z,666.40
2023-09-21T15:05:51.512Z,715.10
2023-09-21T15:06:51.298Z,710.10
2023-09-21T15:08:02.692Z,722.80
2023-09-21T15:08:51.247Z,747.90
2023-09-21T15:09:51.236Z,746.00
2023-09-21T15:10:51.240Z,750.40
2023-09-21T15:11:52.097Z,751.00
2023-09-21T15:12:51.237Z,764.90
2023-09-21T15:13:51.211Z,740.30
2023-09-21T15:14:51.242Z,764.90
2023-09-21T15:15:51.383Z,780.70
2023-09-21T15:16:51.250Z,748.30
2023-09-21T15:17:51.174Z,778.70
2023-09-21T15:18:51.222Z,722.10
2023-09-21T15:19:51.135Z,703.90
2023-09-21T15:20:51.117Z,715.20
2023-09-21T15:21:51.129Z,702.50
2023-09-21T15:22:51.094Z,737.80
2023-09-21T15:23:51.075Z,720.20
2023-09-21T15:24:51.126Z,719.60
2023-09-21T15:25:52.657Z,715.40
2023-09-21T15:26:51.062Z,749.90
2023-09-21T15:27:51.070Z,707.20
2023-09-21T15:28:51.026Z,736.30
2023-09-21T15:29:51.016Z,749.80
2023-09-21T15:30:51.061Z,753.70
2023-09-21T15:31:51.046Z,807.00
2023-09-21T15:32:51.026Z,808.10
2023-09-21T15:33:51.303Z,783.70
2023-09-21T15:34:50.998Z,788.00
2023-09-21T15:35:50.980Z,780.90
2023-09-21T15:36:50.962Z,806.90
2023-09-21T15:37:50.929Z,813.20
2023-09-21T15:38:50.928Z,820.10
2023-09-21T15:39:50.914Z,817.30
2023-09-21T15:40:50.927Z,797.40
2023-09-21T15:41:50.884Z,811.50
2023-09-21T15:42:50.885Z,801.20
2023-09-21T15:43:50.869Z,776.10
2023-09-21T15:44:50.873Z,779.60
2023-09-21T15:45:50.943Z,787.70
2023-09-21T15:46:50.836Z,785.90
2023-09-21T15:47:50.835Z,777.00
2023-09-21T15:48:50.883Z,774.20
2023-09-21T15:49:50.856Z,807.60
2023-09-21T15:50:50.825Z,777.20
2023-09-21T15:51:50.778Z,793.40
2023-09-21T15:52:50.756Z,805.70
2023-09-21T15:53:50.760Z,808.90
2023-09-21T15:54:50.756Z,801.30
2023-09-21T15:55:50.730Z,802.10
2023-09-21T15:56:50.724Z,811.20
2023-09-21T15:57:50.725Z,804.70
2023-09-21T15:58:50.687Z,811.70
2023-09-21T15:59:50.684Z,796.00
2023-09-21T16:00:50.674Z,812.40
2023-09-21T16:01:50.707Z,805.20
2023-09-21T16:02:50.745Z,806.70
2023-09-21T16:03:50.774Z,813.80
2023-09-21T16:04:51.503Z,819.60
2023-09-21T16:05:50.612Z,817.30
2023-09-21T16:06:50.615Z,835.80
2023-09-21T16:07:50.606Z,811.50
2023-09-21T16:08:50.619Z,796.30
2023-09-21T16:09:50.570Z,820.70
2023-09-21T16:10:50.565Z,819.20
2023-09-21T16:11:50.563Z,831.10
2023-09-21T16:12:50.543Z,817.80
2023-09-21T16:13:51.881Z,815.80
2023-09-21T16:14:50.552Z,794.40
2023-09-21T16:15:50.606Z,776.30
2023-09-21T16:16:50.530Z,784.30
2023-09-21T16:17:50.541Z,749.40
2023-09-21T16:18:50.555Z,742.70
2023-09-21T16:19:50.490Z,786.30
2023-09-21T16:20:50.460Z,764.80
2023-09-21T16:21:50.436Z,732.50
2023-09-21T16:22:50.514Z,614.90
2023-09-21T16:23:50.454Z,408.70
2023-09-21T16:24:50.525Z,301.90
2023-09-21T16:25:50.403Z,214.60
2023-09-21T16:26:50.414Z,191.50
2023-09-21T16:27:50.418Z,160.10
2023-09-21T16:28:50.397Z,165.30
